FW5693 Weather Reports


Display with metric or nautical units.
time (UTC)temp
F
wind
direction
speed
MPH
gust
MPH
rain 1hr
in
rain 24hr
in
rain mn
in
humidity
%
barometer
mb
20200119020516 26 51 3.0 3.0 0.00 0.85 0.85 99 1002.0
20200119015518 26 118 3.0 6.0 0.00 0.85 0.85 99 1002.2
20200119014520 26 88 4.0 7.0 0.85 0.85 0.85 99 1002.7
20200119013523 26 102 2.0 3.0 0.85 0.85 0.85 99 1003.1
20200119012525 25 99 2.0 5.0 0.85 0.85 0.85 99 1003.4
20200119011527 25 99 3.0 5.0 0.85 0.85 0.85 99 1003.7
20200119010530 25 107 4.0 7.0 0.85 0.85 0.85 99 1004.0
20200119005526 25 105 5.0 8.0 0.85 0.85 0.85 99 1004.2
20200119004516 25 121 4.0 6.0 0.00 0.00 0.00 99 1005.0
20200119003518 24 108 4.0 6.0 0.00 0.00 0.00 99 1005.3
20200119002020 23 84 6.0 10.0 0.00 0.00 0.00 99 1005.6
20200119001022 22 100 4.0 7.0 0.00 0.00 0.00 99 1006.0
20200119000025 21 87 4.0 5.0 0.00 0.00 0.00 99 1006.2
20200118235026 20 121 2.0 5.0 0.00 0.00 0.00 99 1006.4
20200118234029 19 80 2.0 4.0 0.00 0.00 0.00 99 1006.7
20200118233031 18 117 2.0 4.0 0.00 0.00 0.00 99 1007.0
20200118232015 18 52 3.0 5.0 0.00 0.00 0.00 99 1007.1
20200118231017 17 50 3.0 5.0 0.00 0.00 0.00 99 1007.8
20200118230019 16 77 3.0 6.0 0.00 0.00 0.00 99 1008.5
20200118225022 16 73 4.0 7.0 0.00 0.00 0.00 99 1008.7
20200118224018 16 75 4.0 7.0 0.00 0.00 0.00 98 1008.8
20200118223027 15 67 5.0 7.0 0.00 0.00 0.00 98 1009.0
20200118222029 15 60 4.0 7.0 0.00 0.00 0.00 98 1009.7
20200118221031 15 70 4.0 6.0 0.00 0.00 0.00 98 1010.5
20200118220015 14 61 4.0 7.0 0.00 0.00 0.00 98 1011.3
20200118215017 14 75 5.0 7.0 0.00 0.00 0.00 98 1011.6
20200118214019 14 68 4.0 6.0 0.00 0.00 0.00 98 1011.8
20200118213022 14 42 4.0 7.0 0.00 0.00 0.00 98 1011.8
20200118212024 14 34 6.0 11.0 0.00 0.00 0.00 98 1012.2
20200118211026 14 43 5.0 9.0 0.00 0.00 0.00 97 1012.8
20200118210028 14 36 5.0 10.0 0.00 0.00 0.00 97 1013.1
20200118205031 14 73 6.0 7.0 0.00 0.00 0.00 97 1013.7
20200118204033 14 74 6.0 7.0 0.00 0.00 0.00 97 1014.1
20200118203017 14 42 6.0 9.0 0.00 0.00 0.00 97 1014.6
20200118202019 14 54 6.0 11.0 0.00 0.00 0.00 97 1015.1
20200118201021 14 60 9.0 12.0 0.00 0.00 0.00 97 1015.7
20200118200517 0 45 5.0 5.0 0.00 0.00 0.00 1015.7
20200118200025 14 51 5.0 7.0 0.00 0.00 0.00 97 1016.1
20200118195027 15 39 5.0 10.0 0.00 0.00 0.00 97 1016.2
20200118194124 0 0.0 0.0 0.00 0.00 0.00 1016.1
20200118191519 15 55 7.0 10.0 0.00 0.00 0.00 96 1017.0
20200118190521 15 51 5.0 10.0 0.00 0.00 0.00 96 1017.4
20200118185525 0 45 6.0 6.0 0.00 0.00 0.00 1018.1
20200118185019 15 48 6.0 8.0 0.00 0.00 0.00 95 1018.5
20200118184021 15 38 6.0 9.0 0.00 0.00 0.00 94 1018.9
20200118183024 15 63 6.0 9.0 0.00 0.00 0.00 93 1019.4
20200118182023 15 59 6.0 11.0 0.00 0.00 0.00 93 1019.8
20200118181026 15 47 6.0 8.0 0.00 0.00 0.00 93 1020.8
20200118180516 14 4.0 4.0 0.00 0.00 0.00 93 1020.8
20200118180026 14 67 6.0 9.0 0.00 0.00 0.00 93 1021.8
20200118175522 14 55 9.0 11.0 0.00 0.00 0.00 93 1021.8
20200118174525 14 61 5.0 10.0 0.00 0.00 0.00 93 1022.7
20200118173527 14 38 7.0 11.0 0.00 0.00 0.00 90 1023.5
20200118172530 15 43 5.0 8.0 0.00 0.00 0.00 88 1024.0
20200118171532 15 99 5.0 10.0 0.00 0.00 0.00 85 1024.4
20200118170517 15 67 5.0 11.0 0.00 0.00 0.00 81 1024.7
20200118165519 15 73 5.0 10.0 0.00 0.00 0.00 77 1025.2
20200118164522 15 54 6.0 11.0 0.00 0.00 0.00 76 1025.7
20200118163518 16 95 4.0 8.0 0.00 0.00 0.00 78 1026.0
20200118162516 15 57 5.0 8.0 0.00 0.00 0.00 79 1026.3
20200118161530 15 56 6.0 11.0 0.00 0.00 0.00 79 1026.5
20200118160532 15 75 5.0 8.0 0.00 0.00 0.00 78 1026.8
20200118155517 15 50 5.0 7.0 0.00 0.00 0.00 78 1027.2
20200118154519 15 50 7.0 11.0 0.00 0.00 0.00 77 1027.7
20200118153522 15 62 6.0 9.0 0.00 0.00 0.00 77 1028.3
20200118152524 15 51 4.0 6.0 0.00 0.00 0.00 77 1028.7
20200118151527 14 51 6.0 12.0 0.00 0.00 0.00 77 1028.9
20200118150530 14 45 7.0 11.0 0.00 0.00 0.00 77 1029.0
20200118145532 14 36 6.0 8.0 0.00 0.00 0.00 77 1029.5
20200118144517 14 90 4.0 7.0 0.00 0.00 0.00 78 1029.9
20200118143519 15 53 4.0 6.0 0.00 0.00 0.00 78 1030.4
20200118142522 14 40 5.0 8.0 0.00 0.00 0.00 78 1030.9
20200118141525 14 58 5.0 9.0 0.00 0.00 0.00 79 1031.3
20200118140527 14 54 4.0 6.0 0.00 0.00 0.00 80 1031.5
20200118135524 14 81 4.0 6.0 0.00 0.00 0.00 81 1031.9
20200118134520 13 40 4.0 6.0 0.00 0.00 0.00 81 1032.3
20200118133517 14 45 4.0 8.0 0.00 0.00 0.00 82 1032.3
20200118132519 13 93 4.0 7.0 0.00 0.00 0.00 84 1032.9
20200118131522 13 51 4.0 8.0 0.00 0.00 0.00 84 1033.0
20200118130524 13 54 3.0 5.0 0.00 0.00 0.00 85 1033.1
20200118125527 13 78 3.0 6.0 0.00 0.00 0.00 85 1033.0
20200118124529 13 66 4.0 7.0 0.00 0.00 0.00 85 1033.3
20200118123532 13 51 3.0 6.0 0.00 0.00 0.00 86 1033.5
20200118122517 13 54 4.0 7.0 0.00 0.00 0.00 86 1033.8
20200118121519 13 70 3.0 8.0 0.00 0.00 0.00 86 1034.0
20200118120522 12 61 4.0 6.0 0.00 0.00 0.00 85 1034.3
20200118115524 12 61 3.0 5.0 0.00 0.00 0.00 85 1034.6
20200118114527 12 74 3.0 4.0 0.00 0.00 0.00 85 1034.9
20200118113529 12 46 2.0 8.0 0.00 0.00 0.00 85 1035.5
20200118112532 12 52 3.0 7.0 0.00 0.00 0.00 85 1035.6
20200118111517 11 77 4.0 7.0 0.00 0.00 0.00 85 1035.7
20200118110519 11 76 4.0 6.0 0.00 0.00 0.00 84 1035.8
20200118105522 11 87 4.0 5.0 0.00 0.00 0.00 84 1036.3
20200118104518 11 69 4.0 6.0 0.00 0.00 0.00 82 1036.8
20200118103515 10 64 3.0 6.0 0.00 0.00 0.00 81 1037.0
20200118102530 10 38 4.0 7.0 0.00 0.00 0.00 80 1037.4
20200118101532 10 70 3.0 5.0 0.00 0.00 0.00 79 1037.7
20200118100517 10 86 3.0 6.0 0.00 0.00 0.00 77 1038.1
20200118095519 10 59 3.0 4.0 0.00 0.00 0.00 76 1038.5
20200118094522 10 49 3.0 5.0 0.00 0.00 0.00 75 1038.5
20200118093524 10 51 3.0 5.0 0.00 0.00 0.00 75 1039.1
20200118092527 10 89 3.0 5.0 0.00 0.00 0.00 74 1039.4
20200118091530 10 50 2.0 3.0 0.00 0.00 0.00 73 1039.6
20200118090532 10 54 3.0 4.0 0.00 0.00 0.00 72 1039.9
20200118085517 10 123 2.0 3.0 0.00 0.00 0.00 73 1040.4
20200118084519 10 60 3.0 4.0 0.00 0.00 0.00 74 1040.5
20200118083522 9 69 2.0 4.0 0.00 0.00 0.00 75 1040.9
20200118082524 9 72 2.0 3.0 0.00 0.00 0.00 77 1041.3
20200118081527 9 42 1.0 3.0 0.00 0.00 0.00 82 1041.4
20200118080523 9 131 2.0 3.0 0.00 0.00 0.00 84 1041.4
20200118075520 9 58 2.0 3.0 0.00 0.69 0.00 85 1041.7
20200118074517 8 67 2.0 3.0 0.00 0.69 0.00 85 1042.1
20200118073519 8 106 2.0 4.0 0.00 0.69 0.00 85 1042.4
20200118072522 8 104 3.0 4.0 0.00 0.69 0.00 85 1042.4
20200118071524 8 84 2.0 4.0 0.00 0.69 0.00 85 1042.4
20200118070527 8 116 2.0 3.0 0.00 0.69 0.00 84 1042.4
20200118065530 8 115 1.0 3.0 0.00 0.69 0.00 81 1042.7
20200118064532 8 110 2.0 4.0 0.00 0.69 0.00 77 1043.0
20200118063517 8 73 2.0 3.0 0.00 0.69 0.00 73 1043.2
20200118062519 8 0.0 0.0 0.00 0.69 0.00 72 1043.4
20200118061522 8 91 2.0 4.0 0.00 0.69 0.00 73 1043.3
20200118060524 8 117 1.0 3.0 0.00 0.69 0.00 73 1043.2
20200118055527 7 56 1.0 3.0 0.00 0.69 0.00 75 1043.4
20200118054529 7 68 2.0 3.0 0.00 0.69 0.00 73 1043.7
20200118053532 7 113 1.0 2.0 0.00 0.69 0.00 73 1043.7
20200118052516 7 0.0 0.0 0.00 0.69 0.00 72 1043.9
20200118051519 7 52 2.0 3.0 0.00 0.69 0.00 74 1044.1
20200118050521 7 0.0 0.0 0.00 0.69 0.00 78 1044.2
20200118045518 7 0.0 1.0 0.00 0.69 0.00 83 1044.5
20200118044526 7 349 0.0 2.0 0.00 0.69 0.00 85 1044.5
20200118043529 7 13 0.0 2.0 0.00 0.69 0.00 85 1044.9
20200118042532 6 0.0 0.0 0.00 0.69 0.00 85 1045.0
20200118041516 6 0.0 0.0 0.00 0.69 0.00 84 1044.7
20200118040519 6 322 0.0 2.0 0.00 0.69 0.00 84 1044.5
20200118035521 6 331 2.0 3.0 0.00 0.69 0.00 85 1044.6
20200118034524 6 355 1.0 2.0 0.00 0.69 0.00 88 1044.9
20200118033526 6 336 1.0 2.0 0.00 0.69 0.00 85 1045.2
20200118033032 6 113 0.0 1.0 0.00 0.69 0.00 85 1045.2
20200118031516 6 293 1.0 2.0 0.00 0.69 0.00 85 1045.2
20200118031028 6 302 1.0 2.0 0.00 0.69 0.00 85 1045.2
20200118030525 6 325 2.0 2.0 0.00 0.69 0.00 85 1045.2
20200118030023 6 0.0 0.0 0.00 0.69 0.00 85 1045.4
20200118025026 6 328 2.0 2.0 0.00 0.69 0.00 84 1045.4
20200118024029 6 0.0 1.0 0.00 0.69 0.00 83 1045.4
20200118023530 6 325 2.0 2.0 0.00 0.69 0.00 83 1045.6
20200118023019 6 304 1.0 2.0 0.00 0.69 0.00 83 1045.6
20200118022026 6 0.0 0.0 0.00 0.69 0.00 81 1045.9